createdAt,value
2022-11-22T00:04:46.030Z,2.40
2022-11-22T00:09:52.762Z,2.50
2022-11-22T00:14:59.620Z,2.50
2022-11-22T00:20:09.309Z,2.50
2022-11-22T00:25:17.399Z,2.50
2022-11-22T00:30:26.887Z,2.60
2022-11-22T00:35:34.796Z,2.70
2022-11-22T00:40:42.181Z,2.60
2022-11-22T00:45:48.934Z,2.60
2022-11-22T00:50:56.425Z,2.30
2022-11-22T00:56:03.399Z,2.20
2022-11-22T01:01:11.760Z,2.10
2022-11-22T01:06:20.853Z,2.10
2022-11-22T01:11:28.251Z,2.10
2022-11-22T01:16:35.419Z,1.90
2022-11-22T01:21:42.589Z,1.90
2022-11-22T01:26:50.086Z,1.90
2022-11-22T01:31:56.992Z,1.90
2022-11-22T01:37:04.975Z,2.10
2022-11-22T01:42:14.131Z,2.10
2022-11-22T01:47:26.988Z,2.20
2022-11-22T01:52:37.020Z,2.20
2022-11-22T01:57:46.623Z,2.20
2022-11-22T02:03:02.505Z,2.20
2022-11-22T02:08:13.953Z,2.20
2022-11-22T02:13:24.658Z,2.30
2022-11-22T02:18:31.751Z,2.30
2022-11-22T02:23:48.718Z,2.10
2022-11-22T02:28:58.768Z,2.10
2022-11-22T02:34:05.847Z,2.00
2022-11-22T02:39:15.898Z,2.00
2022-11-22T02:44:23.627Z,2.00
2022-11-22T02:49:30.499Z,2.00
2022-11-22T02:54:37.251Z,2.10
2022-11-22T02:59:46.455Z,2.00
2022-11-22T03:04:53.274Z,2.00
2022-11-22T03:09:59.952Z,2.10
2022-11-22T03:15:08.463Z,2.10
2022-11-22T03:20:15.911Z,2.00
2022-11-22T03:25:22.922Z,2.10
2022-11-22T03:30:29.676Z,2.30
2022-11-22T03:35:36.833Z,2.30
2022-11-22T03:40:46.582Z,2.40
2022-11-22T03:45:53.351Z,2.30
2022-11-22T03:51:07.645Z,2.20
2022-11-22T03:56:14.969Z,2.20
2022-11-22T04:01:21.776Z,2.20
2022-11-22T04:06:28.510Z,2.20
2022-11-22T04:11:36.903Z,2.20
2022-11-22T04:16:43.724Z,2.20
2022-11-22T04:21:50.525Z,2.30
2022-11-22T04:26:58.018Z,2.30
2022-11-22T04:32:23.112Z,2.40
2022-11-22T04:37:29.841Z,2.40
2022-11-22T04:42:54.262Z,2.30
2022-11-22T04:48:01.023Z,2.20
2022-11-22T04:53:07.701Z,2.10
2022-11-22T04:58:14.722Z,2.10
2022-11-22T05:03:21.732Z,2.00
2022-11-22T05:08:28.337Z,2.00
2022-11-22T05:13:46.416Z,2.10
2022-11-22T05:19:00.052Z,1.90
2022-11-22T05:24:07.442Z,1.80
2022-11-22T05:29:15.126Z,2.10
2022-11-22T05:34:22.548Z,2.10
2022-11-22T05:39:29.745Z,2.00
2022-11-22T05:44:36.792Z,2.00
2022-11-22T05:49:45.173Z,2.00
2022-11-22T05:54:51.880Z,2.00
2022-11-22T05:59:58.563Z,2.20
2022-11-22T06:05:06.549Z,2.10
2022-11-22T06:10:13.325Z,2.10
2022-11-22T06:15:20.057Z,2.30
2022-11-22T06:20:26.781Z,2.20
2022-11-22T06:25:33.825Z,2.30
2022-11-22T06:30:40.457Z,2.30
2022-11-22T06:35:47.503Z,2.30
2022-11-22T06:40:54.242Z,2.30
2022-11-22T06:46:02.927Z,2.30
2022-11-22T06:51:14.089Z,2.50
2022-11-22T06:56:25.680Z,2.40
2022-11-22T07:01:36.473Z,2.40
2022-11-22T07:06:47.089Z,2.50
2022-11-22T07:11:54.574Z,2.40
2022-11-22T07:17:01.766Z,2.50
2022-11-22T07:22:09.182Z,2.50
2022-11-22T07:27:16.208Z,2.40
2022-11-22T07:32:23.434Z,2.40
2022-11-22T07:37:34.803Z,2.20
2022-11-22T07:42:41.775Z,2.20
2022-11-22T07:47:48.747Z,2.20
2022-11-22T07:53:00.772Z,2.30
2022-11-22T07:58:07.971Z,2.60
2022-11-22T08:03:17.791Z,2.60
2022-11-22T08:08:24.121Z,2.70
2022-11-22T08:13:32.131Z,2.90
2022-11-22T08:18:40.213Z,3.10
2022-11-22T08:23:49.157Z,3.30
2022-11-22T08:28:56.720Z,3.40
2022-11-22T08:34:04.229Z,3.50
2022-11-22T08:39:12.011Z,3.50
2022-11-22T08:44:18.984Z,3.40
2022-11-22T08:49:27.708Z,3.50
2022-11-22T08:54:37.962Z,3.10
2022-11-22T08:59:44.409Z,3.20
2022-11-22T09:04:54.096Z,3.20
2022-11-22T09:10:01.822Z,3.30
2022-11-22T09:15:10.670Z,3.30
2022-11-22T09:20:18.043Z,3.30
2022-11-22T09:25:25.674Z,3.20
2022-11-22T09:30:33.482Z,3.30
2022-11-22T09:35:40.888Z,3.30
2022-11-22T09:40:50.742Z,3.50
2022-11-22T09:46:21.797Z,3.50
2022-11-22T09:51:33.310Z,3.60
2022-11-22T09:56:43.283Z,3.50
2022-11-22T10:02:17.580Z,3.60
2022-11-22T10:07:19.231Z,3.60
2022-11-22T10:12:39.365Z,3.60
2022-11-22T10:18:03.850Z,3.40
2022-11-22T10:23:23.519Z,3.60
2022-11-22T10:29:05.108Z,3.70
2022-11-22T10:34:27.849Z,3.60
2022-11-22T10:40:06.570Z,3.60
2022-11-22T10:46:06.177Z,3.70
2022-11-22T10:51:38.177Z,3.80
2022-11-22T10:56:59.208Z,3.90
2022-11-22T11:02:38.984Z,3.90
2022-11-22T11:08:03.959Z,4.10
2022-11-22T11:13:25.493Z,4.20
2022-11-22T11:18:57.460Z,4.50
2022-11-22T11:24:05.393Z,4.60
2022-11-22T11:29:26.914Z,4.60
2022-11-22T11:34:35.086Z,4.70
2022-11-22T11:39:46.780Z,4.60
2022-11-22T11:44:54.644Z,4.70
2022-11-22T11:50:04.934Z,4.70
2022-11-22T11:55:16.520Z,4.80
2022-11-22T12:00:33.613Z,4.40
2022-11-22T12:05:41.824Z,4.30
2022-11-22T12:11:02.943Z,4.20
2022-11-22T12:16:34.736Z,4.20
2022-11-22T12:22:00.946Z,4.30
2022-11-22T12:27:09.391Z,4.50
2022-11-22T12:32:25.740Z,4.50
2022-11-22T12:37:37.181Z,4.50
2022-11-22T12:42:59.858Z,4.70
2022-11-22T12:48:16.707Z,4.70
2022-11-22T12:53:40.255Z,4.50
2022-11-22T12:59:10.467Z,4.60
2022-11-22T13:04:31.260Z,4.50
2022-11-22T13:09:44.570Z,4.60
2022-11-22T13:14:55.567Z,4.50
2022-11-22T13:20:18.521Z,4.20
2022-11-22T13:25:44.491Z,4.30
2022-11-22T13:31:07.490Z,4.10
2022-11-22T13:36:38.852Z,3.90
2022-11-22T13:41:55.462Z,3.80
2022-11-22T13:47:26.946Z,3.90
2022-11-22T13:52:54.741Z,3.60
2022-11-22T13:58:14.881Z,3.30
2022-11-22T14:03:40.705Z,3.10
2022-11-22T14:08:49.292Z,2.90
2022-11-22T14:14:13.445Z,2.80
2022-11-22T14:19:59.050Z,2.80
2022-11-22T14:25:22.625Z,2.80
2022-11-22T14:30:52.365Z,2.70
2022-11-22T14:36:15.370Z,2.60
2022-11-22T14:41:44.135Z,2.70
2022-11-22T14:47:10.809Z,2.70
2022-11-22T14:52:29.645Z,2.70
2022-11-22T14:57:39.211Z,2.70
2022-11-22T15:03:34.034Z,2.80
2022-11-22T15:09:46.955Z,2.80
2022-11-22T15:14:38.508Z,2.80
2022-11-22T16:02:18.247Z,2.90
2022-11-22T16:07:45.672Z,3.00
2022-11-22T16:12:53.539Z,3.00
2022-11-22T16:18:13.545Z,3.00
2022-11-22T16:23:24.843Z,3.00
2022-11-22T16:28:37.064Z,3.10
2022-11-22T16:33:44.472Z,3.00
2022-11-22T16:38:52.395Z,3.10
2022-11-22T16:44:09.717Z,3.10
2022-11-22T16:49:24.305Z,2.90
2022-11-22T16:54:33.509Z,2.80
2022-11-22T16:59:40.782Z,2.80
2022-11-22T17:04:49.815Z,2.80
2022-11-22T17:09:56.634Z,2.70
2022-11-22T17:15:05.400Z,2.60
2022-11-22T17:20:13.131Z,2.60
2022-11-22T17:25:20.431Z,2.60
2022-11-22T17:30:28.107Z,2.60
2022-11-22T17:35:37.241Z,2.60
2022-11-22T17:40:45.483Z,2.60
2022-11-22T17:45:52.263Z,2.70
2022-11-22T17:50:59.310Z,2.70
2022-11-22T17:56:11.376Z,2.70
2022-11-22T18:01:19.204Z,2.70
2022-11-22T18:06:27.566Z,2.80
2022-11-22T18:11:34.316Z,2.80
2022-11-22T18:16:41.398Z,2.90
2022-11-22T18:21:48.144Z,2.90
2022-11-22T18:26:55.213Z,2.90
2022-11-22T18:32:03.444Z,2.90
2022-11-22T18:37:11.298Z,2.90
2022-11-22T18:42:18.902Z,3.00
2022-11-22T18:47:25.847Z,3.00
2022-11-22T18:52:39.121Z,3.10
2022-11-22T18:57:47.554Z,3.20
2022-11-22T19:02:54.790Z,3.10
2022-11-22T19:08:01.906Z,3.20
2022-11-22T19:13:09.421Z,3.30
2022-11-22T19:18:17.144Z,3.30
2022-11-22T19:23:24.249Z,3.30
2022-11-22T19:28:32.738Z,3.30
2022-11-22T19:33:41.839Z,3.40
2022-11-22T19:38:49.564Z,3.30
2022-11-22T19:44:00.148Z,3.30
2022-11-22T19:49:07.857Z,3.30
2022-11-22T19:54:15.025Z,3.30
2022-11-22T19:59:22.299Z,3.10
2022-11-22T20:04:29.380Z,3.10
2022-11-22T20:09:38.963Z,3.20
2022-11-22T20:14:45.815Z,3.20
2022-11-22T20:19:52.538Z,3.10
2022-11-22T20:25:00.127Z,3.10
2022-11-22T20:30:09.371Z,3.10
2022-11-22T20:35:16.103Z,3.30
2022-11-22T20:40:22.871Z,3.40
2022-11-22T20:45:29.807Z,3.30
2022-11-22T20:50:36.566Z,3.40
2022-11-22T20:55:43.537Z,3.50
2022-11-22T21:00:51.596Z,3.50
2022-11-22T21:05:58.927Z,3.40
2022-11-22T21:11:10.417Z,3.40
2022-11-22T21:16:24.571Z,3.40
2022-11-22T21:21:35.066Z,3.40
2022-11-22T21:26:42.246Z,3.40
2022-11-22T21:31:49.142Z,3.50
2022-11-22T21:36:56.281Z,3.40
2022-11-22T21:42:03.221Z,3.40
2022-11-22T21:47:10.168Z,3.40
2022-11-22T21:52:17.451Z,3.50
2022-11-22T21:57:24.533Z,3.50
2022-11-22T22:02:33.118Z,3.50
2022-11-22T22:07:56.717Z,3.50
2022-11-22T22:12:53.633Z,3.50
2022-11-22T22:18:00.722Z,3.50
2022-11-22T22:23:08.908Z,3.60
2022-11-22T22:28:16.510Z,3.50
2022-11-22T22:33:23.364Z,3.40
2022-11-22T22:38:31.688Z,3.50
2022-11-22T22:43:42.404Z,3.40
2022-11-22T22:48:52.220Z,3.50
2022-11-22T22:54:01.152Z,3.50
2022-11-22T22:59:10.018Z,3.50
2022-11-22T23:04:17.063Z,3.50
2022-11-22T23:09:23.930Z,3.40
2022-11-22T23:14:31.721Z,3.50
2022-11-22T23:19:38.748Z,3.50
2022-11-22T23:24:46.002Z,3.40
2022-11-22T23:29:52.806Z,3.40
2022-11-22T23:34:59.917Z,3.40
2022-11-22T23:40:08.677Z,3.40
2022-11-22T23:45:15.526Z,3.30
2022-11-22T23:50:22.582Z,3.30
2022-11-22T23:55:29.782Z,3.20
